Brownstown, Illinois
Current Conditions -  °F | °C
As of 2:55 PM on Tuesday 27 Jan 2015 (Local Time) from K1H2 Reporting Station
Overcast Overcast  
Wind Chill: 28°   Ceiling: 1200
Heat Index: 33°   Visibility: 10mi
Dew Point: 27°   Wind: 6mph
Humidity: 77%   Direction: 350°N
Pressure: 30.19"   Gusts: NA
Location:  39°N, 88.95°W
Report Text: K1H2 272055Z AUTO 35005KT 10SM OVC012 01/M03 A3019 RMK AO2 T00071029
Loading
Personal Weather Stations






























Interactive Weather Map New forecast layout! Learn more

10-Day Weather Forecast

Advertisements
Track Severe Weather on mobile